sensor_id;sensor_type;location;lat;lon;timestamp;pressure;altitude;pressure_sealevel;temperature;humidity
74913;BME280;63878;55.624;37.304;2023-09-07T00:09:28;99472.47;;;10.51;58.03
74913;BME280;63878;55.624;37.304;2023-09-07T00:19:28;99481.81;;;10.30;58.72
74913;BME280;63878;55.624;37.304;2023-09-07T00:29:29;99487.00;;;10.06;59.68
74913;BME280;63878;55.624;37.304;2023-09-07T00:39:29;99494.63;;;10.21;59.67
74913;BME280;63878;55.624;37.304;2023-09-07T00:49:29;99496.38;;;10.72;57.86
74913;BME280;63878;55.624;37.304;2023-09-07T00:59:31;99503.47;;;10.82;57.50
74913;BME280;63878;55.624;37.304;2023-09-07T01:09:34;99509.31;;;10.49;57.75
74913;BME280;63878;55.624;37.304;2023-09-07T01:19:35;99510.28;;;9.97;60.46
74913;BME280;63878;55.624;37.304;2023-09-07T01:29:35;99525.66;;;9.50;61.89
74913;BME280;63878;55.624;37.304;2023-09-07T01:39:36;99530.66;;;10.07;60.85
74913;BME280;63878;55.624;37.304;2023-09-07T01:49:36;99528.97;;;10.57;59.31
74913;BME280;63878;55.624;37.304;2023-09-07T01:59:37;99540.53;;;9.76;61.91
74913;BME280;63878;55.624;37.304;2023-09-07T02:09:37;99539.53;;;9.52;62.87
74913;BME280;63878;55.624;37.304;2023-09-07T02:19:38;99547.16;;;9.42;63.10
74913;BME280;63878;55.624;37.304;2023-09-07T02:29:38;99560.09;;;9.04;65.14
74913;BME280;63878;55.624;37.304;2023-09-07T02:39:39;99571.72;;;8.85;66.02
74913;BME280;63878;55.624;37.304;2023-09-07T02:49:39;99584.91;;;8.55;67.64
74913;BME280;63878;55.624;37.304;2023-09-07T02:59:39;99593.47;;;7.99;70.44
74913;BME280;63878;55.624;37.304;2023-09-07T03:09:40;99581.63;;;8.07;69.71
74913;BME280;63878;55.624;37.304;2023-09-07T03:19:40;99595.94;;;8.32;69.35
74913;BME280;63878;55.624;37.304;2023-09-07T03:29:41;99605.91;;;8.25;69.15
74913;BME280;63878;55.624;37.304;2023-09-07T03:39:41;99623.28;;;8.26;69.25
74913;BME280;63878;55.624;37.304;2023-09-07T03:49:42;99622.59;;;8.81;67.59
74913;BME280;63878;55.624;37.304;2023-09-07T03:59:42;99632.81;;;9.56;64.32
74913;BME280;63878;55.624;37.304;2023-09-07T04:09:44;99645.63;;;10.02;62.92
74913;BME280;63878;55.624;37.304;2023-09-07T04:19:44;99644.25;;;10.61;61.23
74913;BME280;63878;55.624;37.304;2023-09-07T04:29:44;99659.47;;;10.56;60.37
74913;BME280;63878;55.624;37.304;2023-09-07T04:39:45;99674.22;;;11.22;60.42
74913;BME280;63878;55.624;37.304;2023-09-07T04:49:49;99673.78;;;11.41;57.62
74913;BME280;63878;55.624;37.304;2023-09-07T04:59:50;99668.63;;;11.76;57.13
74913;BME280;63878;55.624;37.304;2023-09-07T05:09:50;99686.81;;;12.03;56.01
74913;BME280;63878;55.624;37.304;2023-09-07T05:19:50;99673.75;;;12.50;54.20
74913;BME280;63878;55.624;37.304;2023-09-07T05:29:51;99698.16;;;11.56;56.47
74913;BME280;63878;55.624;37.304;2023-09-07T05:39:51;99707.41;;;12.22;55.73
74913;BME280;63878;55.624;37.304;2023-09-07T05:49:52;99690.56;;;14.05;52.59
74913;BME280;63878;55.624;37.304;2023-09-07T05:59:52;99698.72;;;12.09;54.79
74913;BME280;63878;55.624;37.304;2023-09-07T06:09:53;99706.47;;;11.99;56.32
74913;BME280;63878;55.624;37.304;2023-09-07T06:19:54;99708.66;;;13.33;53.84
74913;BME280;63878;55.624;37.304;2023-09-07T06:29:55;99724.09;;;13.38;52.30
74913;BME280;63878;55.624;37.304;2023-09-07T06:39:55;99726.09;;;12.89;53.02
74913;BME280;63878;55.624;37.304;2023-09-07T06:49:56;99744.22;;;11.25;57.38
74913;BME280;63878;55.624;37.304;2023-09-07T06:59:57;99745.22;;;12.45;54.58
74913;BME280;63878;55.624;37.304;2023-09-07T07:09:58;99748.97;;;11.69;55.88
74913;BME280;63878;55.624;37.304;2023-09-07T07:19:58;99753.53;;;13.67;52.55
74913;BME280;63878;55.624;37.304;2023-09-07T07:29:58;99755.66;;;13.28;51.42
74913;BME280;63878;55.624;37.304;2023-09-07T07:39:59;99764.94;;;12.87;51.42
74913;BME280;63878;55.624;37.304;2023-09-07T07:50:00;99758.97;;;13.08;49.69
74913;BME280;63878;55.624;37.304;2023-09-07T08:00:03;99732.38;;;12.40;51.29
74913;BME280;63878;55.624;37.304;2023-09-07T08:10:04;99743.06;;;13.43;48.43
74913;BME280;63878;55.624;37.304;2023-09-07T08:20:05;99742.06;;;13.10;49.40
74913;BME280;63878;55.624;37.304;2023-09-07T08:30:06;99736.59;;;13.47;49.55
74913;BME280;63878;55.624;37.304;2023-09-07T08:40:07;99740.00;;;12.80;47.87
74913;BME280;63878;55.624;37.304;2023-09-07T08:50:07;99732.78;;;12.82;48.41
74913;BME280;63878;55.624;37.304;2023-09-07T09:00:09;99726.09;;;12.78;47.26
74913;BME280;63878;55.624;37.304;2023-09-07T09:10:10;99729.72;;;12.99;46.28
74913;BME280;63878;55.624;37.304;2023-09-07T09:20:26;99735.59;;;13.03;46.50
74913;BME280;63878;55.624;37.304;2023-09-07T09:30:26;99746.56;;;12.75;44.42
74913;BME280;63878;55.624;37.304;2023-09-07T09:40:27;99739.53;;;12.86;45.14
74913;BME280;63878;55.624;37.304;2023-09-07T09:50:28;99722.22;;;13.62;43.45
74913;BME280;63878;55.624;37.304;2023-09-07T10:00:28;99724.22;;;13.47;43.03
74913;BME280;63878;55.624;37.304;2023-09-07T10:10:34;99733.69;;;13.16;43.80
74913;BME280;63878;55.624;37.304;2023-09-07T10:20:58;99726.38;;;13.31;42.94
74913;BME280;63878;55.624;37.304;2023-09-07T10:41:01;99704.19;;;13.00;42.00
74913;BME280;63878;55.624;37.304;2023-09-07T10:51:02;99717.56;;;14.09;41.73
74913;BME280;63878;55.624;37.304;2023-09-07T11:01:02;99714.16;;;13.75;41.11
74913;BME280;63878;55.624;37.304;2023-09-07T11:11:04;99693.16;;;14.91;42.35
74913;BME280;63878;55.624;37.304;2023-09-07T11:21:05;99708.28;;;14.47;39.19
74913;BME280;63878;55.624;37.304;2023-09-07T11:31:05;99705.16;;;15.56;41.85
74913;BME280;63878;55.624;37.304;2023-09-07T11:41:06;99676.69;;;15.08;41.34
74913;BME280;63878;55.624;37.304;2023-09-07T11:51:06;99703.28;;;15.77;43.14
74913;BME280;63878;55.624;37.304;2023-09-07T12:01:07;99657.72;;;15.03;41.85
74913;BME280;63878;55.624;37.304;2023-09-07T12:11:07;99706.28;;;14.39;39.45
74913;BME280;63878;55.624;37.304;2023-09-07T12:21:08;99700.81;;;14.52;38.44
74913;BME280;63878;55.624;37.304;2023-09-07T12:31:08;99698.34;;;14.92;40.74
74913;BME280;63878;55.624;37.304;2023-09-07T12:41:09;99684.38;;;14.48;38.31
74913;BME280;63878;55.624;37.304;2023-09-07T12:51:09;99681.28;;;14.11;38.37
74913;BME280;63878;55.624;37.304;2023-09-07T13:01:10;99683.56;;;14.37;39.52
74913;BME280;63878;55.624;37.304;2023-09-07T13:11:11;99677.78;;;14.11;39.81
74913;BME280;63878;55.624;37.304;2023-09-07T13:21:11;99658.06;;;14.47;38.34
74913;BME280;63878;55.624;37.304;2023-09-07T13:31:12;99653.78;;;14.34;39.36
74913;BME280;63878;55.624;37.304;2023-09-07T13:41:12;99660.22;;;14.21;38.47
74913;BME280;63878;55.624;37.304;2023-09-07T13:51:13;99664.69;;;14.20;39.44
74913;BME280;63878;55.624;37.304;2023-09-07T14:01:14;99659.63;;;15.31;43.35
74913;BME280;63878;55.624;37.304;2023-09-07T14:11:14;99648.13;;;14.81;40.73
74913;BME280;63878;55.624;37.304;2023-09-07T14:21:16;99652.50;;;14.50;40.75
74913;BME280;63878;55.624;37.304;2023-09-07T14:31:16;99639.97;;;14.31;39.98
74913;BME280;63878;55.624;37.304;2023-09-07T14:41:17;99626.19;;;15.30;41.56
74913;BME280;63878;55.624;37.304;2023-09-07T14:51:18;99633.09;;;14.81;36.16
74913;BME280;63878;55.624;37.304;2023-09-07T15:01:18;99638.25;;;14.41;38.04
74913;BME280;63878;55.624;37.304;2023-09-07T15:11:21;99638.44;;;15.22;39.11
74913;BME280;63878;55.624;37.304;2023-09-07T15:21:21;99632.91;;;15.04;37.25
74913;BME280;63878;55.624;37.304;2023-09-07T15:31:22;99636.91;;;14.47;38.48
74913;BME280;63878;55.624;37.304;2023-09-07T15:41:23;99639.97;;;14.31;40.47
74913;BME280;63878;55.624;37.304;2023-09-07T15:51:24;99655.38;;;14.05;39.74
74913;BME280;63878;55.624;37.304;2023-09-07T16:01:25;99646.66;;;13.93;41.31
74913;BME280;63878;55.624;37.304;2023-09-07T16:11:25;99653.84;;;13.91;43.14
74913;BME280;63878;55.624;37.304;2023-09-07T16:21:26;99647.81;;;14.32;44.48
74913;BME280;63878;55.624;37.304;2023-09-07T16:31:27;99653.97;;;13.90;41.06
74913;BME280;63878;55.624;37.304;2023-09-07T16:41:27;99650.06;;;13.73;43.19
74913;BME280;63878;55.624;37.304;2023-09-07T16:51:28;99645.59;;;14.38;47.33
74913;BME280;63878;55.624;37.304;2023-09-07T17:01:28;99649.66;;;14.42;47.74
74913;BME280;63878;55.624;37.304;2023-09-07T17:11:29;99630.91;;;14.86;50.97
74913;BME280;63878;55.624;37.304;2023-09-07T17:21:30;99628.13;;;14.88;51.03
74913;BME280;63878;55.624;37.304;2023-09-07T17:31:30;99631.44;;;14.80;52.05
74913;BME280;63878;55.624;37.304;2023-09-07T17:41:31;99613.47;;;14.63;51.83
74913;BME280;63878;55.624;37.304;2023-09-07T17:51:32;99626.56;;;14.65;51.29
74913;BME280;63878;55.624;37.304;2023-09-07T18:01:33;99636.19;;;14.66;53.02
74913;BME280;63878;55.624;37.304;2023-09-07T18:11:33;99625.72;;;14.64;54.64
74913;BME280;63878;55.624;37.304;2023-09-07T18:21:36;99624.72;;;14.76;52.31
74913;BME280;63878;55.624;37.304;2023-09-07T18:31:36;99600.34;;;14.10;48.58
74913;BME280;63878;55.624;37.304;2023-09-07T18:41:37;99599.44;;;14.00;55.54
74913;BME280;63878;55.624;37.304;2023-09-07T18:51:37;99597.84;;;15.11;48.35
74913;BME280;63878;55.624;37.304;2023-09-07T19:01:38;99595.78;;;13.80;46.21
74913;BME280;63878;55.624;37.304;2023-09-07T19:11:39;99594.13;;;13.13;47.81
74913;BME280;63878;55.624;37.304;2023-09-07T19:21:39;99584.06;;;12.85;48.79
74913;BME280;63878;55.624;37.304;2023-09-07T19:31:41;99575.78;;;12.89;49.56
74913;BME280;63878;55.624;37.304;2023-09-07T19:41:42;99571.22;;;13.03;50.17
74913;BME280;63878;55.624;37.304;2023-09-07T19:51:43;99547.16;;;12.74;50.93
74913;BME280;63878;55.624;37.304;2023-09-07T20:01:57;99551.34;;;12.65;51.16
74913;BME280;63878;55.624;37.304;2023-09-07T20:11:59;99542.13;;;12.59;52.26
74913;BME280;63878;55.624;37.304;2023-09-07T20:22:00;99530.47;;;12.39;52.55
74913;BME280;63878;55.624;37.304;2023-09-07T20:32:00;99534.91;;;12.39;52.30
74913;BME280;63878;55.624;37.304;2023-09-07T20:42:01;99519.56;;;12.33;52.61
74913;BME280;63878;55.624;37.304;2023-09-07T20:52:01;99514.97;;;12.24;53.04
74913;BME280;63878;55.624;37.304;2023-09-07T21:02:02;99506.94;;;12.14;53.12
74913;BME280;63878;55.624;37.304;2023-09-07T21:12:02;99502.50;;;12.03;53.76
74913;BME280;63878;55.624;37.304;2023-09-07T21:22:04;99495.09;;;12.08;53.35
74913;BME280;63878;55.624;37.304;2023-09-07T21:32:04;99488.56;;;11.90;53.59
74913;BME280;63878;55.624;37.304;2023-09-07T21:42:05;99486.78;;;11.90;54.19
74913;BME280;63878;55.624;37.304;2023-09-07T21:52:05;99478.78;;;11.92;53.86
74913;BME280;63878;55.624;37.304;2023-09-07T22:02:06;99479.91;;;11.66;54.00
74913;BME280;63878;55.624;37.304;2023-09-07T22:12:07;99480.25;;;11.61;54.79
74913;BME280;63878;55.624;37.304;2023-09-07T22:22:07;99458.75;;;11.67;54.03
74913;BME280;63878;55.624;37.304;2023-09-07T22:32:08;99449.97;;;11.55;54.54
74913;BME280;63878;55.624;37.304;2023-09-07T22:42:08;99456.69;;;11.59;55.25
74913;BME280;63878;55.624;37.304;2023-09-07T22:52:09;99448.41;;;11.53;55.41
74913;BME280;63878;55.624;37.304;2023-09-07T23:02:09;99444.44;;;11.47;54.86
74913;BME280;63878;55.624;37.304;2023-09-07T23:12:09;99424.50;;;11.56;55.06
74913;BME280;63878;55.624;37.304;2023-09-07T23:22:10;99417.06;;;11.50;55.33
74913;BME280;63878;55.624;37.304;2023-09-07T23:32:10;99409.41;;;11.47;55.51
74913;BME280;63878;55.624;37.304;2023-09-07T23:42:11;99408.06;;;11.41;56.05
74913;BME280;63878;55.624;37.304;2023-09-07T23:52:11;99407.25;;;11.41;55.36
